Time;durP1;ratioP1;P1;durP2;ratioP2;P2;SDS_P1;SDS_P2;PMS_P1;PMS_P2;Temp;Humidity;BMP_temperature;BMP_pressure;BME280_temperature;BME280_humidity;BME280_pressure;Samples;Min_cycle;Max_cycle;Signal;HPM_P1;HPM_P2
2023/05/11 00:09:59;;;;;;;2.30;2.10;;;;;;;;;;4995814;28;20049;-61
2023/05/11 00:16:28;;;;;;;3.20;2.60;;;;;;;;;;4972644;28;20491;-62
2023/05/11 00:19:50;;;;;;;2.70;2.40;;;;;;;;;;4985566;28;20112;-61
2023/05/11 00:32:20;;;;;;;3.15;2.58;;;;;;;;;;4982249;28;20076;-62
2023/05/11 00:42:02;;;;;;;2.45;2.22;;;;;;;;;;5006497;28;20575;-62
2023/05/11 00:45:46;;;;;;;2.75;2.40;;;;;;;;;;4978889;28;20046;-62
2023/05/11 00:49:09;;;;;;;3.15;2.70;;;;;;;;;;4993659;28;20057;-60
2023/05/11 00:55:51;;;;;;;3.13;2.28;;;;;;;;;;5012522;28;20025;-63
2023/05/11 00:59:26;;;;;;;2.92;2.60;;;;;;;;;;5009885;28;20056;-62
2023/05/11 01:02:47;;;;;;;2.93;2.50;;;;;;;;;;4998770;28;20100;-59
2023/05/11 01:15:20;;;;;;;3.22;2.88;;;;;;;;;;4983453;28;20173;-62
2023/05/11 01:18:42;;;;;;;3.25;2.67;;;;;;;;;;4968488;28;20047;-63
2023/05/11 01:25:06;;;;;;;3.03;2.58;;;;;;;;;;4975862;28;20049;-61
2023/05/11 01:47:32;;;;;;;2.75;2.45;;;;;;;;;;4979614;28;20588;-58
2023/05/11 02:00:23;;;;;;;2.70;2.47;;;;;;;;;;4973677;28;20460;-61
2023/05/11 02:03:24;;;;;;;3.05;2.75;;;;;;;;;;4975781;28;20624;-57
2023/05/11 02:12:35;;;;;;;3.00;2.70;;;;;;;;;;4985471;28;20046;-58
2023/05/11 02:18:55;;;;;;;2.70;2.50;;;;;;;;;;4945232;28;20058;-60
2023/05/11 02:22:14;;;;;;;3.00;2.30;;;;;;;;;;4940232;28;20229;-62
2023/05/11 02:31:58;;;;;;;3.63;2.83;;;;;;;;;;4927048;28;20041;-61
2023/05/11 02:35:13;;;;;;;2.40;2.15;;;;;;;;;;4951634;28;20030;-60
2023/05/11 02:41:44;;;;;;;2.90;2.60;;;;;;;;;;4983875;28;20042;-57
2023/05/11 02:54:30;;;;;;;2.88;2.58;;;;;;;;;;4995034;28;20042;-62
2023/05/11 03:10:40;;;;;;;2.90;2.60;;;;;;;;;;5028568;28;20403;-62
2023/05/11 03:17:08;;;;;;;2.80;2.50;;;;;;;;;;4972351;28;20367;-62
2023/05/11 03:20:18;;;;;;;2.67;2.45;;;;;;;;;;5010709;28;20029;-62
2023/05/11 03:23:31;;;;;;;3.15;2.60;;;;;;;;;;4970120;28;20510;-63
2023/05/11 03:29:46;;;;;;;2.42;2.22;;;;;;;;;;4989597;28;20038;-64
2023/05/11 03:32:52;;;;;;;3.10;2.40;;;;;;;;;;5007869;28;20040;-56
2023/05/11 03:35:51;;;;;;;2.40;2.20;;;;;;;;;;4983619;28;20074;-62
2023/05/11 03:38:43;;;;;;;2.70;2.50;;;;;;;;;;5002585;28;20045;-63
2023/05/11 03:41:53;;;;;;;2.50;2.30;;;;;;;;;;5018762;28;20434;-61
2023/05/11 03:45:15;;;;;;;2.88;2.40;;;;;;;;;;4983563;28;20315;-62
2023/05/11 03:48:18;;;;;;;2.67;2.15;;;;;;;;;;5016760;28;20041;-61
2023/05/11 03:51:20;;;;;;;2.50;2.20;;;;;;;;;;5003065;28;20092;-61
2023/05/11 03:54:17;;;;;;;2.60;2.25;;;;;;;;;;5016461;28;20055;-61
2023/05/11 03:57:19;;;;;;;2.78;2.45;;;;;;;;;;4991197;28;20042;-61
2023/05/11 04:00:32;;;;;;;2.65;2.42;;;;;;;;;;5015232;28;20049;-62
2023/05/11 04:03:39;;;;;;;2.65;2.40;;;;;;;;;;4991043;28;20036;-60
2023/05/11 04:06:36;;;;;;;2.10;1.90;;;;;;;;;;5007896;28;20103;-63
2023/05/11 04:09:45;;;;;;;2.85;2.33;;;;;;;;;;5008015;28;20128;-61
2023/05/11 04:12:49;;;;;;;3.10;2.25;;;;;;;;;;5013567;28;20047;-62
2023/05/11 04:15:53;;;;;;;2.55;2.35;;;;;;;;;;5015727;28;20521;-57
2023/05/11 04:18:53;;;;;;;3.15;2.40;;;;;;;;;;4996878;28;20076;-60
2023/05/11 04:21:46;;;;;;;3.38;2.65;;;;;;;;;;5017894;28;20539;-61
2023/05/11 04:24:51;;;;;;;4.40;2.70;;;;;;;;;;5013955;28;20117;-58
2023/05/11 04:27:53;;;;;;;5.28;2.70;;;;;;;;;;5000584;28;20370;-63
2023/05/11 04:30:54;;;;;;;6.35;2.90;;;;;;;;;;5002630;28;20044;-62
2023/05/11 04:33:49;;;;;;;7.32;2.95;;;;;;;;;;4999919;28;20049;-57
2023/05/11 04:36:50;;;;;;;6.70;2.95;;;;;;;;;;5017049;28;20517;-60
2023/05/11 04:39:44;;;;;;;7.45;3.10;;;;;;;;;;5016448;28;20037;-61
2023/05/11 04:42:42;;;;;;;7.15;3.20;;;;;;;;;;5003133;28;20480;-56
2023/05/11 04:45:38;;;;;;;9.45;3.20;;;;;;;;;;4997528;28;20529;-58
2023/05/11 04:48:44;;;;;;;11.60;3.17;;;;;;;;;;5013105;28;20029;-61
2023/05/11 04:51:53;;;;;;;7.53;3.60;;;;;;;;;;5015938;28;20215;-60
2023/05/11 04:54:55;;;;;;;9.75;3.60;;;;;;;;;;4959758;28;20210;-57
2023/05/11 04:57:51;;;;;;;8.20;3.42;;;;;;;;;;4962914;28;20531;-61
2023/05/11 05:00:45;;;;;;;7.00;3.00;;;;;;;;;;4977269;28;20072;-62
2023/05/11 05:03:51;;;;;;;6.13;3.25;;;;;;;;;;4994530;28;20045;-61
2023/05/11 05:06:50;;;;;;;6.10;3.33;;;;;;;;;;4976628;28;20333;-60
2023/05/11 05:09:44;;;;;;;9.57;2.92;;;;;;;;;;4978473;28;20053;-61
2023/05/11 05:12:40;;;;;;;6.30;3.50;;;;;;;;;;4997958;28;20636;-63
2023/05/11 05:17:49;;;;;;;6.60;3.85;;;;;;;;;;5252107;23;19925;-75
2023/05/11 05:20:14;;;;;;;5.15;3.38;;;;;;;;;;4949864;28;20038;-77
2023/05/11 05:22:40;;;;;;;8.65;3.40;;;;;;;;;;4971179;28;20035;-77
2023/05/11 05:25:06;;;;;;;8.38;3.75;;;;;;;;;;4971597;28;20034;-78
2023/05/11 05:27:31;;;;;;;8.88;3.55;;;;;;;;;;4949727;28;20058;-77
2023/05/11 05:29:57;;;;;;;10.82;3.80;;;;;;;;;;4952641;28;20670;-75
2023/05/11 05:32:22;;;;;;;8.60;3.77;;;;;;;;;;4942621;28;20066;-75
2023/05/11 05:35:19;;;;;;;8.98;4.00;;;;;;;;;;5196426;23;21499;-62
2023/05/11 05:37:45;;;;;;;9.57;3.80;;;;;;;;;;5067021;23;20075;-77
2023/05/11 05:40:11;;;;;;;6.40;3.77;;;;;;;;;;4993243;28;20026;-76
2023/05/11 05:42:36;;;;;;;6.82;3.65;;;;;;;;;;4983044;28;20272;-76
2023/05/11 05:45:01;;;;;;;8.67;3.50;;;;;;;;;;5011507;28;20029;-89
2023/05/11 05:47:26;;;;;;;9.45;3.88;;;;;;;;;;4991976;28;20339;-86
2023/05/11 05:49:52;;;;;;;8.38;3.97;;;;;;;;;;5006691;28;20042;-90
2023/05/11 05:52:17;;;;;;;8.73;4.00;;;;;;;;;;4985070;28;20033;-78
2023/05/11 05:54:42;;;;;;;7.00;3.92;;;;;;;;;;4997117;28;20285;-79
2023/05/11 05:57:07;;;;;;;10.00;4.35;;;;;;;;;;5001944;28;20041;-77
2023/05/11 05:59:33;;;;;;;9.18;4.50;;;;;;;;;;4999675;28;20045;-78
2023/05/11 06:01:58;;;;;;;8.02;4.43;;;;;;;;;;4996420;28;20017;-77
2023/05/11 06:04:23;;;;;;;7.90;4.40;;;;;;;;;;4996019;28;20018;-76
2023/05/11 06:06:49;;;;;;;8.45;4.00;;;;;;;;;;5000043;28;20559;-79
2023/05/11 06:09:14;;;;;;;7.60;4.03;;;;;;;;;;5013980;28;20147;-77
2023/05/11 06:11:40;;;;;;;8.23;4.10;;;;;;;;;;4984439;28;20017;-77
2023/05/11 06:14:05;;;;;;;8.45;4.32;;;;;;;;;;5015099;28;20319;-79
2023/05/11 06:16:30;;;;;;;10.40;4.30;;;;;;;;;;5013985;28;20013;-79
2023/05/11 06:18:55;;;;;;;9.47;4.37;;;;;;;;;;5000027;28;20045;-79
2023/05/11 06:21:21;;;;;;;7.25;4.28;;;;;;;;;;4997052;28;20018;-82
2023/05/11 06:23:46;;;;;;;8.15;4.60;;;;;;;;;;4996354;28;20022;-77
2023/05/11 06:26:11;;;;;;;10.50;5.13;;;;;;;;;;5017314;28;20044;-80
2023/05/11 06:28:36;;;;;;;8.68;4.88;;;;;;;;;;4978957;28;20097;-77
2023/05/11 06:31:02;;;;;;;11.10;5.07;;;;;;;;;;4998453;28;20017;-78
2023/05/11 06:33:28;;;;;;;7.50;4.78;;;;;;;;;;4993651;28;20284;-81
2023/05/11 06:35:53;;;;;;;8.82;4.80;;;;;;;;;;4990845;28;20040;-91
2023/05/11 06:38:18;;;;;;;7.97;5.10;;;;;;;;;;5005969;28;20068;-81
2023/05/11 06:41:02;;;;;;;8.63;4.72;;;;;;;;;;4999802;28;20288;-81
2023/05/11 06:43:27;;;;;;;8.38;4.68;;;;;;;;;;5004621;28;20415;-82
2023/05/11 06:45:52;;;;;;;8.37;5.03;;;;;;;;;;4997722;28;20041;-77
2023/05/11 06:48:18;;;;;;;8.30;4.90;;;;;;;;;;4987658;28;20289;-76
2023/05/11 06:50:44;;;;;;;8.35;5.47;;;;;;;;;;4983326;28;20040;-75
2023/05/11 06:53:09;;;;;;;9.03;4.63;;;;;;;;;;5018539;28;20034;-75
2023/05/11 06:55:34;;;;;;;6.93;4.35;;;;;;;;;;5003946;28;20363;-76
2023/05/11 06:58:00;;;;;;;7.78;4.75;;;;;;;;;;4996432;28;20048;-76
2023/05/11 07:00:25;;;;;;;10.33;5.23;;;;;;;;;;4988226;28;20045;-78
2023/05/11 07:02:51;;;;;;;7.35;4.85;;;;;;;;;;4990126;28;20295;-77
2023/05/11 07:05:17;;;;;;;8.48;4.82;;;;;;;;;;5018670;28;20041;-76
2023/05/11 07:07:42;;;;;;;7.32;4.90;;;;;;;;;;5004855;28;20038;-78
2023/05/11 07:10:07;;;;;;;9.53;4.93;;;;;;;;;;5003421;28;20361;-76
2023/05/11 07:12:33;;;;;;;7.55;4.90;;;;;;;;;;5018206;28;22127;-77
2023/05/11 07:14:58;;;;;;;7.25;4.85;;;;;;;;;;4984325;28;20474;-77
2023/05/11 07:17:23;;;;;;;7.15;5.43;;;;;;;;;;5015047;28;20034;-78
2023/05/11 07:19:51;;;;;;;7.95;5.25;;;;;;;;;;5004435;28;20045;-79
2023/05/11 07:22:16;;;;;;;8.85;5.32;;;;;;;;;;4998258;28;20072;-80
2023/05/11 07:24:41;;;;;;;6.78;5.30;;;;;;;;;;4985231;28;20054;-78
2023/05/11 07:27:06;;;;;;;7.28;5.30;;;;;;;;;;4997788;28;20044;-80
2023/05/11 07:29:32;;;;;;;6.93;5.37;;;;;;;;;;5003834;28;20176;-80
2023/05/11 07:31:57;;;;;;;8.77;5.67;;;;;;;;;;5003336;28;20122;-79
2023/05/11 07:34:23;;;;;;;7.63;5.50;;;;;;;;;;5019158;28;20067;-78
2023/05/11 07:36:48;;;;;;;8.30;5.35;;;;;;;;;;4990962;28;20303;-77
2023/05/11 07:39:15;;;;;;;8.82;6.18;;;;;;;;;;4995079;28;21631;-79
2023/05/11 07:41:41;;;;;;;7.13;5.10;;;;;;;;;;4980966;28;20062;-76
2023/05/11 07:44:06;;;;;;;7.72;5.57;;;;;;;;;;4987027;28;20163;-77
2023/05/11 07:46:31;;;;;;;7.87;5.57;;;;;;;;;;4992268;28;20034;-75
2023/05/11 07:48:56;;;;;;;8.30;6.10;;;;;;;;;;4977548;28;20312;-78
2023/05/11 07:51:22;;;;;;;7.17;5.70;;;;;;;;;;4976922;28;20038;-78
2023/05/11 07:53:47;;;;;;;7.78;5.38;;;;;;;;;;4982595;28;20862;-78
2023/05/11 07:56:12;;;;;;;7.57;5.82;;;;;;;;;;4986638;28;20049;-78
2023/05/11 07:58:38;;;;;;;7.22;5.60;;;;;;;;;;5011427;28;20089;-78
2023/05/11 08:01:03;;;;;;;7.30;5.65;;;;;;;;;;4988621;28;20497;-77
2023/05/11 08:03:28;;;;;;;7.88;5.72;;;;;;;;;;4986421;28;20112;-76
2023/05/11 08:05:53;;;;;;;7.97;6.03;;;;;;;;;;5004253;28;20146;-76
2023/05/11 08:08:19;;;;;;;7.53;5.87;;;;;;;;;;5006904;28;20129;-76
2023/05/11 08:10:44;;;;;;;9.33;6.47;;;;;;;;;;5006605;28;20068;-77
2023/05/11 08:13:09;;;;;;;6.88;5.68;;;;;;;;;;4988329;28;20304;-75
2023/05/11 08:15:35;;;;;;;7.95;5.97;;;;;;;;;;5005606;28;20057;-75
2023/05/11 08:18:01;;;;;;;8.20;5.95;;;;;;;;;;5004404;28;20480;-75
2023/05/11 08:20:27;;;;;;;7.30;5.82;;;;;;;;;;5006297;28;20026;-75
2023/05/11 08:22:52;;;;;;;8.68;6.50;;;;;;;;;;5003429;28;20038;-76
2023/05/11 08:25:17;;;;;;;8.60;6.20;;;;;;;;;;4988065;28;20037;-75
2023/05/11 08:27:42;;;;;;;8.30;5.95;;;;;;;;;;5004992;28;20505;-76
2023/05/11 08:30:08;;;;;;;7.45;6.00;;;;;;;;;;5004288;28;20030;-75
2023/05/11 08:32:34;;;;;;;7.13;5.85;;;;;;;;;;5004296;28;20813;-76
2023/05/11 08:34:59;;;;;;;7.35;5.70;;;;;;;;;;5004245;28;20042;-75
2023/05/11 08:37:25;;;;;;;6.73;5.70;;;;;;;;;;5005729;28;20598;-76
2023/05/11 08:39:50;;;;;;;7.20;5.78;;;;;;;;;;5002967;28;20289;-76
2023/05/11 08:42:15;;;;;;;6.95;5.40;;;;;;;;;;5002904;28;20038;-76
2023/05/11 08:44:41;;;;;;;7.78;6.00;;;;;;;;;;4987538;28;20172;-76
2023/05/11 08:47:07;;;;;;;7.32;5.90;;;;;;;;;;5003904;28;20037;-76
2023/05/11 08:49:32;;;;;;;6.72;5.85;;;;;;;;;;5004398;28;20026;-77
2023/05/11 08:51:58;;;;;;;7.13;5.85;;;;;;;;;;4986923;28;20029;-75
2023/05/11 08:54:23;;;;;;;7.68;6.20;;;;;;;;;;5004119;28;20520;-75
2023/05/11 08:56:50;;;;;;;7.38;5.40;;;;;;;;;;4983805;28;20027;-74
2023/05/11 08:59:15;;;;;;;6.93;5.90;;;;;;;;;;4984187;28;20164;-72
2023/05/11 09:01:40;;;;;;;6.00;5.40;;;;;;;;;;4984373;28;20149;-76
2023/05/11 09:04:06;;;;;;;8.57;5.77;;;;;;;;;;5010999;28;20042;-76
2023/05/11 09:06:32;;;;;;;8.43;5.82;;;;;;;;;;4991802;28;20311;-78
2023/05/11 09:08:57;;;;;;;7.22;5.82;;;;;;;;;;4993743;28;20348;-77
2023/05/11 09:11:23;;;;;;;8.13;6.67;;;;;;;;;;4994892;28;20038;-77
2023/05/11 09:13:49;;;;;;;20.85;9.25;;;;;;;;;;4998251;28;20331;-77
2023/05/11 09:16:17;;;;;;;12.77;8.90;;;;;;;;;;4977357;28;20057;-76
2023/05/11 09:18:46;;;;;;;12.18;8.07;;;;;;;;;;5003884;28;20567;-76
2023/05/11 09:21:11;;;;;;;10.52;7.38;;;;;;;;;;4994246;28;20113;-76
2023/05/11 09:23:39;;;;;;;12.60;6.97;;;;;;;;;;4980446;28;20279;-77
2023/05/11 09:26:14;;;;;;;10.45;6.88;;;;;;;;;;4974981;28;20509;-75
2023/05/11 09:28:47;;;;;;;8.75;6.68;;;;;;;;;;4995375;28;20035;-78
2023/05/11 09:31:12;;;;;;;8.75;6.57;;;;;;;;;;4981988;28;20598;-78
2023/05/11 09:33:40;;;;;;;9.65;6.70;;;;;;;;;;4999612;28;20037;-78
2023/05/11 09:36:08;;;;;;;9.90;7.25;;;;;;;;;;4994024;28;20041;-80
2023/05/11 09:38:33;;;;;;;9.05;6.30;;;;;;;;;;4987562;28;20050;-77
2023/05/11 09:41:01;;;;;;;10.80;6.57;;;;;;;;;;5010235;28;20034;-78
2023/05/11 09:43:29;;;;;;;11.27;6.70;;;;;;;;;;5001826;28;20132;-78
2023/05/11 09:45:55;;;;;;;10.48;6.68;;;;;;;;;;5011204;28;20709;-78
2023/05/11 09:48:20;;;;;;;8.13;6.18;;;;;;;;;;4982797;28;20034;-73
2023/05/11 09:50:50;;;;;;;9.55;6.30;;;;;;;;;;5012407;28;20410;-80
2023/05/11 09:53:16;;;;;;;8.40;6.60;;;;;;;;;;5006744;28;20129;-82
2023/05/11 09:55:51;;;;;;;8.65;6.13;;;;;;;;;;4988201;28;20205;-83
2023/05/11 09:58:18;;;;;;;7.72;5.85;;;;;;;;;;5012194;28;20103;-83
2023/05/11 10:00:47;;;;;;;7.45;5.95;;;;;;;;;;4985520;28;20102;-77
2023/05/11 10:03:12;;;;;;;9.32;6.75;;;;;;;;;;4998703;28;20022;-80
2023/05/11 10:05:41;;;;;;;7.83;6.00;;;;;;;;;;4985133;28;20026;-77
2023/05/11 10:08:06;;;;;;;7.50;5.85;;;;;;;;;;4987532;28;20288;-76
2023/05/11 10:10:32;;;;;;;8.38;6.18;;;;;;;;;;5006615;28;20155;-79
2023/05/11 10:12:57;;;;;;;8.52;6.03;;;;;;;;;;5007267;28;20504;-85
2023/05/11 10:15:27;;;;;;;8.32;5.72;;;;;;;;;;4986097;28;20064;-75
2023/05/11 10:17:55;;;;;;;7.60;5.90;;;;;;;;;;5016101;28;20726;-78
2023/05/11 10:20:21;;;;;;;6.55;5.30;;;;;;;;;;5003985;28;20056;-73
2023/05/11 10:22:46;;;;;;;7.30;5.47;;;;;;;;;;5001327;28;20026;-77
2023/05/11 10:25:12;;;;;;;7.03;5.90;;;;;;;;;;4983346;28;20132;-74
2023/05/11 10:27:37;;;;;;;7.55;5.40;;;;;;;;;;4982941;28;20084;-75
2023/05/11 10:30:03;;;;;;;7.67;5.57;;;;;;;;;;4982238;28;20052;-75
2023/05/11 10:32:28;;;;;;;7.22;5.50;;;;;;;;;;4986910;28;20326;-75
2023/05/11 10:34:53;;;;;;;6.23;5.10;;;;;;;;;;4990943;28;20185;-83
2023/05/11 10:37:19;;;;;;;8.32;5.85;;;;;;;;;;5013620;28;21005;-93
2023/05/11 10:39:45;;;;;;;7.07;5.50;;;;;;;;;;4986335;28;20151;-76
2023/05/11 10:42:13;;;;;;;6.43;5.40;;;;;;;;;;5020161;28;20101;-77
2023/05/11 10:44:58;;;;;;;7.82;5.63;;;;;;;;;;5015277;28;20395;-75
2023/05/11 10:47:26;;;;;;;7.43;5.68;;;;;;;;;;5022518;28;20037;-76
2023/05/11 10:50:04;;;;;;;7.30;5.32;;;;;;;;;;5028368;28;20105;-77
2023/05/11 10:52:35;;;;;;;6.90;5.55;;;;;;;;;;5029364;28;20091;-76
2023/05/11 10:55:06;;;;;;;7.00;5.47;;;;;;;;;;5010560;28;20042;-75
2023/05/11 10:57:35;;;;;;;6.53;5.65;;;;;;;;;;4993027;28;20025;-76
2023/05/11 11:00:08;;;;;;;6.22;5.10;;;;;;;;;;5010216;28;20041;-77
2023/05/11 11:02:34;;;;;;;6.85;5.38;;;;;;;;;;5024827;28;20467;-76
2023/05/11 11:05:04;;;;;;;6.13;5.40;;;;;;;;;;5025310;28;20696;-77
2023/05/11 11:07:30;;;;;;;7.55;5.45;;;;;;;;;;4987795;28;20037;-77
2023/05/11 11:09:56;;;;;;;5.95;5.10;;;;;;;;;;5015982;28;20603;-77
2023/05/11 11:12:26;;;;;;;7.15;5.35;;;;;;;;;;5025148;28;20256;-77
2023/05/11 11:14:55;;;;;;;6.07;4.85;;;;;;;;;;5013344;28;20042;-78
2023/05/11 11:17:21;;;;;;;7.03;5.28;;;;;;;;;;5005565;28;20432;-77
2023/05/11 11:19:46;;;;;;;6.43;5.35;;;;;;;;;;5009415;28;20088;-77
2023/05/11 11:22:30;;;;;;;7.23;5.27;;;;;;;;;;5027377;28;20042;-77
2023/05/11 11:24:55;;;;;;;5.30;4.70;;;;;;;;;;5026919;28;20524;-76
2023/05/11 11:27:22;;;;;;;6.83;5.63;;;;;;;;;;5027616;28;20095;-76
2023/05/11 11:30:07;;;;;;;6.00;5.05;;;;;;;;;;5008959;28;20284;-78
2023/05/11 11:32:32;;;;;;;6.30;5.07;;;;;;;;;;5010656;28;20037;-78
2023/05/11 11:34:58;;;;;;;5.87;5.07;;;;;;;;;;5027613;28;20025;-74
2023/05/11 11:37:23;;;;;;;6.65;5.13;;;;;;;;;;5010505;28;20276;-76
2023/05/11 11:39:49;;;;;;;6.10;4.55;;;;;;;;;;5025834;28;20041;-75
2023/05/11 11:42:14;;;;;;;5.80;4.82;;;;;;;;;;5009901;28;20034;-76
2023/05/11 11:44:39;;;;;;;6.17;5.23;;;;;;;;;;5026942;28;20033;-74
2023/05/11 11:47:15;;;;;;;6.75;4.60;;;;;;;;;;5009546;28;20829;-76
2023/05/11 11:49:41;;;;;;;5.72;5.00;;;;;;;;;;4996409;28;20097;-76
2023/05/11 11:52:11;;;;;;;6.80;5.00;;;;;;;;;;5012873;28;20095;-74
2023/05/11 11:54:37;;;;;;;5.97;4.53;;;;;;;;;;5009493;28;20099;-88
2023/05/11 11:57:02;;;;;;;5.88;4.95;;;;;;;;;;5009482;28;20147;-77
2023/05/11 11:59:27;;;;;;;7.47;4.75;;;;;;;;;;4992764;28;20128;-77
2023/05/11 12:01:54;;;;;;;5.57;4.67;;;;;;;;;;5009451;28;20026;-77
2023/05/11 12:04:52;;;;;;;6.15;4.70;;;;;;;;;;5010397;28;20713;-82
2023/05/11 12:07:18;;;;;;;6.45;4.57;;;;;;;;;;4960267;28;20033;-77
2023/05/11 12:09:44;;;;;;;5.97;4.32;;;;;;;;;;5011096;28;20654;-77
2023/05/11 12:12:09;;;;;;;6.13;4.20;;;;;;;;;;5011708;28;20041;-77
2023/05/11 12:14:34;;;;;;;5.30;4.32;;;;;;;;;;5011928;28;20490;-79
2023/05/11 12:17:00;;;;;;;6.20;4.50;;;;;;;;;;4993795;28;20030;-79
2023/05/11 12:19:27;;;;;;;4.55;4.03;;;;;;;;;;4995951;28;20150;-79
2023/05/11 12:21:52;;;;;;;4.75;3.95;;;;;;;;;;5010829;28;20034;-79
2023/05/11 12:24:17;;;;;;;6.53;4.50;;;;;;;;;;5010718;28;20068;-79
2023/05/11 12:26:43;;;;;;;5.40;4.33;;;;;;;;;;4994495;28;20384;-79
2023/05/11 12:29:12;;;;;;;5.50;4.55;;;;;;;;;;5010665;28;20060;-79
2023/05/11 12:31:38;;;;;;;7.80;4.37;;;;;;;;;;5010658;28;20040;-79
2023/05/11 12:34:03;;;;;;;5.00;4.35;;;;;;;;;;4990049;28;20038;-79
2023/05/11 12:36:28;;;;;;;5.63;4.30;;;;;;;;;;4988213;28;20057;-77
2023/05/11 12:38:54;;;;;;;5.55;4.25;;;;;;;;;;4987391;28;20301;-78
2023/05/11 12:41:22;;;;;;;6.73;4.27;;;;;;;;;;5011419;28;20040;-78
2023/05/11 12:43:50;;;;;;;5.55;4.40;;;;;;;;;;4987017;28;20281;-78
2023/05/11 12:46:19;;;;;;;6.22;4.28;;;;;;;;;;4990587;28;20076;-79
2023/05/11 12:48:44;;;;;;;4.97;4.10;;;;;;;;;;4991512;28;20036;-79
2023/05/11 12:51:10;;;;;;;11.20;4.60;;;;;;;;;;4992798;28;20041;-78
2023/05/11 12:53:35;;;;;;;5.50;4.40;;;;;;;;;;4991395;28;20775;-79
2023/05/11 12:56:01;;;;;;;5.40;3.92;;;;;;;;;;5009759;28;20101;-79
2023/05/11 12:58:27;;;;;;;5.38;4.28;;;;;;;;;;5008604;28;20041;-77
2023/05/11 13:00:53;;;;;;;7.10;4.85;;;;;;;;;;4989886;28;20042;-78
2023/05/11 13:03:22;;;;;;;5.40;4.45;;;;;;;;;;5009203;28;20153;-79
2023/05/11 13:05:47;;;;;;;6.10;4.45;;;;;;;;;;5026175;28;20033;-66
2023/05/11 13:08:13;;;;;;;6.03;4.77;;;;;;;;;;5010427;28;20120;-76
2023/05/11 13:10:38;;;;;;;7.47;4.53;;;;;;;;;;4994332;28;20296;-78
2023/05/11 13:13:04;;;;;;;6.37;4.20;;;;;;;;;;5008013;28;20091;-74
2023/05/11 13:15:30;;;;;;;7.30;4.22;;;;;;;;;;5008047;28;20310;-78
2023/05/11 13:18:02;;;;;;;6.78;5.00;;;;;;;;;;4990120;28;20137;-80
2023/05/11 13:20:28;;;;;;;5.53;4.10;;;;;;;;;;4998981;28;20057;-85
2023/05/11 13:23:02;;;;;;;7.35;4.80;;;;;;;;;;5008030;28;20076;-79
2023/05/11 13:25:27;;;;;;;6.47;4.47;;;;;;;;;;5008247;28;20029;-79
2023/05/11 13:27:54;;;;;;;6.13;4.57;;;;;;;;;;4992300;28;20396;-79
2023/05/11 13:30:19;;;;;;;6.68;4.60;;;;;;;;;;4992005;28;20053;-80
2023/05/11 13:32:45;;;;;;;4.95;4.25;;;;;;;;;;5009688;28;20091;-80
2023/05/11 13:35:10;;;;;;;5.82;4.30;;;;;;;;;;5009065;28;20037;-79
2023/05/11 13:37:35;;;;;;;7.00;4.80;;;;;;;;;;4992176;28;20496;-79
2023/05/11 13:40:01;;;;;;;5.60;4.60;;;;;;;;;;4993809;28;20377;-79
2023/05/11 13:42:26;;;;;;;6.35;4.75;;;;;;;;;;5005244;28;20045;-78
2023/05/11 13:44:54;;;;;;;5.35;4.53;;;;;;;;;;5008503;28;20037;-79
2023/05/11 13:47:19;;;;;;;5.53;4.63;;;;;;;;;;4994267;28;20061;-79
2023/05/11 13:49:45;;;;;;;5.47;4.63;;;;;;;;;;5027358;28;20065;-79
2023/05/11 13:52:10;;;;;;;5.40;4.37;;;;;;;;;;4991748;28;20909;-79
2023/05/11 13:54:35;;;;;;;6.18;4.43;;;;;;;;;;5009190;28;20378;-80
2023/05/11 13:57:00;;;;;;;6.20;4.78;;;;;;;;;;5008816;28;20058;-79
2023/05/11 13:59:26;;;;;;;5.60;4.63;;;;;;;;;;5010167;28;20617;-79
2023/05/11 14:01:54;;;;;;;6.27;4.60;;;;;;;;;;4990428;28;20037;-79
2023/05/11 14:04:19;;;;;;;6.10;4.80;;;;;;;;;;5011765;28;20360;-79
2023/05/11 14:06:44;;;;;;;6.65;4.72;;;;;;;;;;5008693;28;20048;-81
2023/05/11 14:09:10;;;;;;;5.33;4.40;;;;;;;;;;5008577;28;20045;-80
2023/05/11 14:11:36;;;;;;;5.38;4.28;;;;;;;;;;4992835;28;20045;-80
2023/05/11 14:14:01;;;;;;;7.10;4.70;;;;;;;;;;4996930;28;20501;-80
2023/05/11 14:16:30;;;;;;;5.35;4.65;;;;;;;;;;5026021;28;20060;-77
2023/05/11 14:18:55;;;;;;;6.10;4.85;;;;;;;;;;4987002;28;20046;-77
2023/05/11 14:21:20;;;;;;;6.10;4.67;;;;;;;;;;5015084;28;20468;-78
2023/05/11 14:23:45;;;;;;;6.30;4.45;;;;;;;;;;4988082;28;20308;-79
2023/05/11 14:26:11;;;;;;;6.13;5.10;;;;;;;;;;4988446;28;20060;-78
2023/05/11 14:28:36;;;;;;;5.47;4.30;;;;;;;;;;4990174;28;20679;-79
2023/05/11 14:31:02;;;;;;;7.50;5.00;;;;;;;;;;5008987;28;20121;-79
2023/05/11 14:33:27;;;;;;;5.40;4.50;;;;;;;;;;5007682;28;20065;-79
2023/05/11 14:35:52;;;;;;;6.10;4.55;;;;;;;;;;5007533;28;20038;-78
2023/05/11 14:38:17;;;;;;;5.15;4.38;;;;;;;;;;5006633;28;20128;-79
2023/05/11 14:40:43;;;;;;;5.97;4.63;;;;;;;;;;5006871;28;20049;-79
2023/05/11 14:43:08;;;;;;;5.40;4.47;;;;;;;;;;4989866;28;20367;-79
2023/05/11 14:45:33;;;;;;;5.87;4.60;;;;;;;;;;5007464;28;20284;-79
2023/05/11 14:47:59;;;;;;;5.50;4.63;;;;;;;;;;5006690;28;20280;-79
2023/05/11 14:50:27;;;;;;;5.32;4.53;;;;;;;;;;4991157;28;20319;-80
2023/05/11 14:52:52;;;;;;;6.05;4.47;;;;;;;;;;4987619;28;20037;-80
2023/05/11 14:55:18;;;;;;;4.90;4.30;;;;;;;;;;4973514;28;20036;-80
2023/05/11 14:57:43;;;;;;;5.43;4.22;;;;;;;;;;5010375;28;20030;-79
2023/05/11 15:00:09;;;;;;;5.43;4.47;;;;;;;;;;5010400;28;20041;-77
2023/05/11 15:02:34;;;;;;;5.05;4.10;;;;;;;;;;5010004;28;20120;-77
2023/05/11 15:04:59;;;;;;;4.80;4.30;;;;;;;;;;5012024;28;20092;-76
2023/05/11 15:07:25;;;;;;;6.07;4.30;;;;;;;;;;5014445;28;20034;-76
2023/05/11 15:09:51;;;;;;;7.57;4.82;;;;;;;;;;4994459;28;20037;-77
2023/05/11 15:12:16;;;;;;;5.57;4.20;;;;;;;;;;5011414;28;20500;-76
2023/05/11 15:14:41;;;;;;;5.07;4.33;;;;;;;;;;5026413;28;20072;-76
2023/05/11 15:17:07;;;;;;;4.90;3.83;;;;;;;;;;5000027;28;20038;-80
2023/05/11 15:19:32;;;;;;;4.57;4.00;;;;;;;;;;4986394;28;20725;-78
2023/05/11 15:21:57;;;;;;;6.47;4.23;;;;;;;;;;5001074;28;20061;-78
2023/05/11 15:24:23;;;;;;;6.38;4.55;;;;;;;;;;4984194;28;20917;-74
2023/05/11 15:26:48;;;;;;;6.28;4.00;;;;;;;;;;4988556;28;20042;-74
2023/05/11 15:29:15;;;;;;;4.57;3.90;;;;;;;;;;5022160;28;20112;-74
2023/05/11 15:31:40;;;;;;;4.53;3.95;;;;;;;;;;5024432;28;20105;-79
2023/05/11 15:34:06;;;;;;;4.90;3.90;;;;;;;;;;5001208;28;20110;-80
2023/05/11 15:36:31;;;;;;;6.53;4.63;;;;;;;;;;5007677;28;20048;-76
2023/05/11 15:38:56;;;;;;;5.63;4.60;;;;;;;;;;5006626;28;20053;-79
2023/05/11 15:41:22;;;;;;;6.13;4.40;;;;;;;;;;5002230;28;21566;-75
2023/05/11 15:43:47;;;;;;;4.57;3.85;;;;;;;;;;5007540;28;20291;-80
2023/05/11 15:46:12;;;;;;;5.33;4.10;;;;;;;;;;5004052;28;20077;-81
2023/05/11 15:48:38;;;;;;;6.13;4.30;;;;;;;;;;5003971;28;20293;-80
2023/05/11 15:51:03;;;;;;;5.30;4.50;;;;;;;;;;5005743;28;20387;-82
2023/05/11 15:53:28;;;;;;;5.43;4.00;;;;;;;;;;5009238;28;20111;-80
2023/05/11 15:55:54;;;;;;;4.47;3.80;;;;;;;;;;5020286;28;20084;-78
2023/05/11 15:58:20;;;;;;;6.03;4.00;;;;;;;;;;4998091;28;20318;-81
2023/05/11 16:00:45;;;;;;;4.25;3.53;;;;;;;;;;5007644;28;20041;-76
2023/05/11 16:03:10;;;;;;;5.65;4.20;;;;;;;;;;4982370;28;20065;-76
2023/05/11 16:05:36;;;;;;;5.22;3.72;;;;;;;;;;5018341;28;20525;-76
2023/05/11 16:08:02;;;;;;;4.75;3.97;;;;;;;;;;4987775;28;20042;-77
2023/05/11 16:10:27;;;;;;;4.13;3.55;;;;;;;;;;5005560;28;20085;-79
2023/05/11 16:12:52;;;;;;;4.93;3.93;;;;;;;;;;5008879;28;20037;-78
2023/05/11 16:15:18;;;;;;;4.68;3.30;;;;;;;;;;4984407;28;20356;-78
2023/05/11 16:17:43;;;;;;;4.82;3.67;;;;;;;;;;4990437;28;20041;-76
2023/05/11 16:20:08;;;;;;;4.30;3.58;;;;;;;;;;4988553;28;20540;-80
2023/05/11 16:22:36;;;;;;;4.78;3.33;;;;;;;;;;5005730;28;20091;-81
2023/05/11 16:25:01;;;;;;;5.80;3.67;;;;;;;;;;5006624;28;20131;-81
2023/05/11 16:27:26;;;;;;;3.77;3.37;;;;;;;;;;5000167;28;20038;-76
2023/05/11 16:29:51;;;;;;;4.95;3.47;;;;;;;;;;4981395;28;20053;-76
2023/05/11 16:32:19;;;;;;;4.20;3.37;;;;;;;;;;4986588;28;20038;-74
2023/05/11 16:34:44;;;;;;;4.65;3.55;;;;;;;;;;4996653;28;21063;-74
2023/05/11 16:37:09;;;;;;;5.13;4.07;;;;;;;;;;4990402;28;20041;-74
2023/05/11 16:39:34;;;;;;;4.20;3.57;;;;;;;;;;4998788;28;20141;-74
2023/05/11 16:42:00;;;;;;;4.23;3.20;;;;;;;;;;5015749;28;20295;-75
2023/05/11 16:44:25;;;;;;;4.70;3.40;;;;;;;;;;5003537;28;20316;-75
2023/05/11 16:46:51;;;;;;;3.85;3.45;;;;;;;;;;5018514;28;20072;-74
2023/05/11 16:49:16;;;;;;;4.22;3.72;;;;;;;;;;5012660;28;20132;-76
2023/05/11 16:51:44;;;;;;;4.90;3.57;;;;;;;;;;5000726;28;20113;-74
2023/05/11 16:54:10;;;;;;;4.20;3.50;;;;;;;;;;4996042;28;20300;-76
2023/05/11 16:56:35;;;;;;;5.32;3.78;;;;;;;;;;4986689;28;20826;-75
2023/05/11 16:59:00;;;;;;;5.68;3.63;;;;;;;;;;4988487;28;20479;-77
2023/05/11 17:01:27;;;;;;;5.38;3.30;;;;;;;;;;4990893;28;20034;-72
2023/05/11 17:03:52;;;;;;;4.03;3.40;;;;;;;;;;5003805;28;20037;-75
2023/05/11 17:06:19;;;;;;;5.63;3.50;;;;;;;;;;5001483;28;20034;-75
2023/05/11 17:08:44;;;;;;;4.45;3.38;;;;;;;;;;4986579;28;20292;-77
2023/05/11 17:11:09;;;;;;;17.13;4.03;;;;;;;;;;5016030;28;20427;-79
2023/05/11 17:13:35;;;;;;;5.80;3.72;;;;;;;;;;5002651;28;20131;-79
2023/05/11 17:16:01;;;;;;;5.05;4.00;;;;;;;;;;4998285;28;20629;-75
2023/05/11 17:18:26;;;;;;;4.03;3.17;;;;;;;;;;4986858;28;20038;-76
2023/05/11 17:20:53;;;;;;;4.38;3.40;;;;;;;;;;5001173;28;20033;-78
2023/05/11 17:23:18;;;;;;;4.88;3.38;;;;;;;;;;5005533;28;20029;-79